Time;durP1;ratioP1;P1;durP2;ratioP2;P2;SDS_P1;SDS_P2;PMS_P1;PMS_P2;Temp;Humidity;BMP_temperature;BMP_pressure;BME280_temperature;BME280_humidity;BME280_pressure;Samples;Min_cycle;Max_cycle;Signal;HPM_P1;HPM_P2
2023/04/13 00:00:32;;;;;;;1.33;0.70;;;8.20;56.20;;;;;;5079318;28;20506;-41
2023/04/13 00:02:59;;;;;;;0.90;0.50;;;8.20;92.20;;;;;;5079723;28;20454;-41
2023/04/13 00:05:25;;;;;;;2.07;0.57;;;8.10;99.90;;;;;;5086872;28;20176;-42
2023/04/13 00:07:52;;;;;;;1.33;0.67;;;8.10;99.90;;;;;;5100955;28;20808;-43
2023/04/13 00:10:19;;;;;;;2.43;0.73;;;8.10;99.90;;;;;;5100842;28;20866;-40
2023/04/13 00:12:48;;;;;;;1.60;0.63;;;8.10;99.90;;;;;;5099964;28;20458;-41
2023/04/13 00:15:16;;;;;;;1.33;0.60;;;8.10;99.90;;;;;;5099162;28;20503;-42
2023/04/13 00:17:42;;;;;;;2.53;0.63;;;8.10;99.90;;;;;;5099531;28;20598;-41
2023/04/13 00:20:12;;;;;;;0.90;0.53;;;8.10;99.90;;;;;;5101884;28;20956;-41
2023/04/13 00:22:43;;;;;;;1.10;0.60;;;8.10;99.90;;;;;;5100813;28;20411;-40
2023/04/13 00:25:10;;;;;;;2.00;0.70;;;8.00;99.90;;;;;;5099836;28;20693;-40
2023/04/13 00:27:38;;;;;;;1.40;0.60;;;8.00;99.90;;;;;;5099754;28;20453;-41
2023/04/13 00:30:08;;;;;;;0.90;0.67;;;8.10;99.90;;;;;;5099363;28;20822;-43
2023/04/13 00:32:34;;;;;;;2.30;0.70;;;8.10;99.90;;;;;;5100739;28;20406;-42
2023/04/13 00:35:00;;;;;;;1.10;0.60;;;8.10;99.90;;;;;;5100337;28;20529;-42
2023/04/13 00:37:28;;;;;;;1.50;0.90;;;8.10;99.90;;;;;;5099435;28;20456;-45
2023/04/13 00:39:54;;;;;;;1.17;0.63;;;8.00;1.00;;;;;;5100435;28;20910;-43
2023/04/13 00:42:19;;;;;;;1.20;0.67;;;8.00;1.00;;;;;;5100091;28;20518;-43
2023/04/13 00:44:45;;;;;;;1.63;0.93;;;8.00;99.90;;;;;;5099918;28;20434;-41
2023/04/13 00:47:12;;;;;;;1.37;0.57;;;8.00;99.90;;;;;;5098753;28;20172;-42
2023/04/13 00:49:38;;;;;;;1.30;0.50;;;8.00;99.90;;;;;;5097337;28;20466;-43
2023/04/13 00:52:07;;;;;;;1.80;0.70;;;8.00;99.90;;;;;;5097249;28;20418;-42
2023/04/13 00:54:33;;;;;;;1.20;0.50;;;8.00;99.90;;;;;;5097180;28;20437;-42
2023/04/13 00:57:00;;;;;;;0.80;0.40;;;7.90;99.90;;;;;;5098483;28;20832;-40
2023/04/13 00:59:26;;;;;;;1.30;0.90;;;7.90;99.90;;;;;;5098845;28;20464;-40
2023/04/13 01:01:55;;;;;;;1.27;0.60;;;7.90;99.90;;;;;;5096701;28;20774;-42
2023/04/13 01:04:26;;;;;;;1.20;0.43;;;7.90;99.90;;;;;;5098068;28;20467;-40
2023/04/13 01:07:10;;;;;;;2.37;0.70;;;7.90;99.90;;;;;;5095908;28;20720;-41
2023/04/13 01:10:02;;;;;;;1.00;0.60;;;7.90;99.90;;;;;;5098513;28;20766;-40
2023/04/13 01:12:53;;;;;;;1.97;0.63;;;7.90;99.90;;;;;;5098754;28;20437;-41
2023/04/13 01:15:19;;;;;;;1.93;0.70;;;7.90;99.90;;;;;;5098726;28;20453;-40
2023/04/13 01:17:52;;;;;;;0.97;0.50;;;7.80;99.90;;;;;;5080937;28;20426;-41
2023/04/13 01:20:19;;;;;;;1.43;0.80;;;7.80;99.90;;;;;;5097577;28;20477;-44
2023/04/13 01:22:50;;;;;;;2.47;0.57;;;7.80;99.90;;;;;;5098439;28;20797;-41
2023/04/13 01:25:40;;;;;;;1.30;0.70;;;7.80;99.90;;;;;;5098425;28;20465;-41
2023/04/13 01:28:12;;;;;;;1.87;0.70;;;7.80;99.90;;;;;;5098755;28;20417;-40
2023/04/13 01:30:38;;;;;;;1.37;0.50;;;7.80;99.90;;;;;;5098214;28;20480;-41
2023/04/13 01:33:05;;;;;;;1.30;0.70;;;7.70;71.10;;;;;;5099390;28;20495;-42
2023/04/13 01:35:37;;;;;;;1.40;0.57;;;7.70;58.10;;;;;;5098984;28;20446;-41
2023/04/13 01:38:02;;;;;;;1.80;0.83;;;7.60;99.90;;;;;;5098809;28;20433;-41
2023/04/13 01:40:30;;;;;;;2.03;0.67;;;7.60;97.60;;;;;;5098279;28;20553;-42
2023/04/13 01:42:56;;;;;;;0.90;0.60;;;7.60;99.90;;;;;;5098600;28;20442;-43
2023/04/13 01:45:28;;;;;;;1.17;0.63;;;7.50;99.90;;;;;;5098790;28;20425;-42
2023/04/13 01:48:08;;;;;;;1.00;0.50;;;7.50;99.90;;;;;;5096746;28;20795;-42
2023/04/13 01:50:38;;;;;;;1.70;0.73;;;7.50;99.90;;;;;;5099264;28;20442;-41
2023/04/13 01:53:10;;;;;;;0.90;0.40;;;7.50;99.90;;;;;;5098017;28;20507;-41
2023/04/13 01:55:38;;;;;;;1.47;0.60;;;7.40;99.90;;;;;;5098830;28;20445;-41
2023/04/13 01:58:05;;;;;;;1.80;0.80;;;7.40;99.90;;;;;;5096841;28;20753;-41
2023/04/13 02:00:36;;;;;;;1.40;0.50;;;7.40;99.90;;;;;;5097278;28;20968;-42
2023/04/13 02:03:07;;;;;;;1.40;0.90;;;7.40;99.90;;;;;;5097588;28;20426;-41
2023/04/13 02:05:36;;;;;;;1.50;0.63;;;7.40;99.90;;;;;;5095937;28;20462;-41
2023/04/13 02:08:04;;;;;;;2.20;1.00;;;7.40;99.90;;;;;;5098196;28;20430;-41
2023/04/13 02:10:31;;;;;;;2.00;0.70;;;7.40;99.90;;;;;;5098169;28;20414;-42
2023/04/13 02:12:57;;;;;;;1.37;0.67;;;7.40;1.00;;;;;;5097785;28;20430;-42
2023/04/13 02:15:23;;;;;;;2.00;0.73;;;7.40;1.00;;;;;;5096802;28;20547;-43
2023/04/13 02:17:49;;;;;;;1.60;0.67;;;7.40;1.00;;;;;;5095651;28;20430;-43
2023/04/13 02:20:15;;;;;;;2.23;0.70;;;7.40;1.00;;;;;;5094366;28;20224;-41
2023/04/13 02:22:42;;;;;;;1.73;0.60;;;7.30;1.00;;;;;;5095338;28;20426;-41
2023/04/13 02:25:11;;;;;;;1.13;0.60;;;7.30;1.00;;;;;;5095972;28;20505;-41
2023/04/13 02:27:40;;;;;;;1.63;0.90;;;7.30;1.00;;;;;;5096048;28;20496;-41
2023/04/13 02:30:09;;;;;;;1.93;1.00;;;7.30;1.00;;;;;;5097158;28;20509;-41
2023/04/13 02:32:39;;;;;;;2.17;0.90;;;7.30;1.00;;;;;;5097223;28;20431;-41
2023/04/13 02:35:08;;;;;;;2.00;0.80;;;7.30;1.00;;;;;;5096033;28;20419;-40
2023/04/13 02:37:38;;;;;;;1.80;1.03;;;7.30;1.00;;;;;;5096818;28;20445;-44
2023/04/13 02:40:07;;;;;;;1.70;0.73;;;7.20;1.00;;;;;;5095812;28;20469;-42
2023/04/13 02:42:33;;;;;;;1.97;0.70;;;7.20;1.00;;;;;;5096764;28;20497;-41
2023/04/13 02:44:58;;;;;;;1.40;0.60;;;7.20;1.00;;;;;;5096591;28;20572;-41
2023/04/13 02:47:25;;;;;;;1.43;0.87;;;7.10;1.00;;;;;;5096255;28;20491;-41
2023/04/13 02:49:51;;;;;;;1.50;0.70;;;7.10;1.00;;;;;;5097044;28;20262;-42
2023/04/13 02:52:16;;;;;;;1.90;0.70;;;7.10;1.00;;;;;;5097656;28;20439;-40
2023/04/13 02:54:42;;;;;;;1.20;0.80;;;7.10;1.00;;;;;;5096493;28;20697;-43
2023/04/13 02:57:12;;;;;;;1.37;0.70;;;7.00;1.00;;;;;;5096468;28;20249;-41
2023/04/13 02:59:39;;;;;;;2.03;1.10;;;7.00;9.00;;;;;;5096785;28;20812;-41
2023/04/13 03:02:05;;;;;;;2.03;1.03;;;7.00;4.60;;;;;;5096373;28;20755;-41
2023/04/13 03:04:31;;;;;;;1.80;0.80;;;7.00;2.50;;;;;;5097598;28;20411;-40
2023/04/13 03:06:57;;;;;;;1.30;0.70;;;6.90;1.00;;;;;;5096106;28;20434;-41
2023/04/13 03:09:24;;;;;;;1.53;0.70;;;6.90;1.00;;;;;;5096247;28;20410;-40
2023/04/13 03:11:50;;;;;;;3.20;1.00;;;6.90;24.30;;;;;;5095785;28;20430;-40
2023/04/13 03:14:21;;;;;;;0.97;0.57;;;6.80;40.90;;;;;;5097085;28;20513;-41
2023/04/13 03:16:48;;;;;;;1.70;0.87;;;6.80;83.90;;;;;;5100275;28;20437;-42
2023/04/13 03:19:15;;;;;;;1.17;0.83;;;6.80;99.90;;;;;;5101041;28;20797;-40
2023/04/13 03:21:43;;;;;;;1.80;1.07;;;6.80;99.90;;;;;;5101629;28;20477;-41
2023/04/13 03:24:10;;;;;;;4.63;1.47;;;6.80;99.90;;;;;;5101475;28;20418;-41
2023/04/13 03:26:36;;;;;;;1.47;0.60;;;6.80;99.90;;;;;;5101046;28;20510;-41
2023/04/13 03:29:02;;;;;;;1.37;0.80;;;6.70;99.90;;;;;;5101021;28;20429;-41
2023/04/13 03:31:29;;;;;;;2.53;0.87;;;6.70;99.90;;;;;;5099558;28;20282;-42
2023/04/13 03:33:56;;;;;;;1.13;0.70;;;6.70;99.90;;;;;;5101049;28;20750;-40
2023/04/13 03:36:22;;;;;;;1.40;0.83;;;6.70;99.90;;;;;;5100720;28;20542;-42
2023/04/13 03:38:48;;;;;;;1.33;0.90;;;6.70;99.90;;;;;;5099691;28;20414;-41
2023/04/13 03:41:14;;;;;;;3.43;1.27;;;6.70;99.90;;;;;;5098921;28;20482;-40
2023/04/13 03:43:40;;;;;;;1.40;0.80;;;6.70;99.90;;;;;;5096732;28;20245;-39
2023/04/13 03:46:06;;;;;;;1.63;0.90;;;6.70;99.90;;;;;;5096419;28;20461;-40
2023/04/13 03:48:32;;;;;;;2.90;1.10;;;6.70;99.90;;;;;;5095761;28;20479;-40
2023/04/13 03:50:58;;;;;;;1.17;0.63;;;6.70;99.90;;;;;;5096477;28;20513;-40
2023/04/13 03:53:25;;;;;;;4.03;1.10;;;6.60;99.90;;;;;;5097088;28;20410;-43
2023/04/13 03:55:51;;;;;;;1.47;1.20;;;6.70;99.90;;;;;;5097711;28;20407;-40
2023/04/13 03:58:17;;;;;;;2.17;1.10;;;6.60;99.90;;;;;;5097695;28;20738;-41
2023/04/13 04:00:43;;;;;;;2.50;0.80;;;6.70;82.60;;;;;;5096404;28;20466;-42
2023/04/13 04:03:09;;;;;;;1.53;1.20;;;6.70;57.60;;;;;;5097795;28;20697;-42
2023/04/13 04:05:37;;;;;;;1.80;0.80;;;6.70;57.20;;;;;;5097900;28;20410;-40
2023/04/13 04:08:03;;;;;;;2.47;1.30;;;6.70;14.60;;;;;;5097901;28;20430;-41
2023/04/13 04:10:29;;;;;;;2.13;1.23;;;6.70;1.00;;;;;;5097904;28;20758;-41
2023/04/13 04:12:56;;;;;;;2.17;1.10;;;6.80;1.00;;;;;;5099348;28;20442;-43
2023/04/13 04:15:21;;;;;;;2.33;1.00;;;6.80;1.00;;;;;;5099310;28;20483;-41
2023/04/13 04:17:47;;;;;;;1.97;1.10;;;6.80;1.00;;;;;;5099109;28;20749;-41
2023/04/13 04:20:13;;;;;;;3.73;1.10;;;6.80;1.00;;;;;;5099051;28;20192;-42
2023/04/13 04:22:40;;;;;;;3.57;1.20;;;6.90;99.90;;;;;;5097944;28;20259;-41
2023/04/13 04:25:07;;;;;;;2.53;1.13;;;6.90;99.90;;;;;;5096987;28;20249;-41
2023/04/13 04:27:36;;;;;;;1.67;0.97;;;6.90;99.90;;;;;;5096960;28;20513;-40
2023/04/13 04:30:04;;;;;;;3.77;1.30;;;6.90;99.90;;;;;;5096055;28;20571;-40
2023/04/13 04:32:32;;;;;;;3.30;1.20;;;6.90;99.90;;;;;;5095480;28;20422;-41
2023/04/13 04:34:59;;;;;;;1.93;1.17;;;7.00;56.10;;;;;;5094905;28;20407;-41
2023/04/13 04:37:24;;;;;;;2.27;1.17;;;7.00;20.10;;;;;;5097872;28;20434;-42
2023/04/13 04:39:52;;;;;;;2.33;1.10;;;7.00;1.00;;;;;;5098090;28;20851;-42
2023/04/13 04:42:17;;;;;;;1.50;1.03;;;7.00;1.00;;;;;;5097551;28;20310;-41
2023/04/13 04:44:46;;;;;;;1.97;0.90;;;7.00;1.00;;;;;;5097376;28;20432;-40
2023/04/13 04:47:15;;;;;;;3.13;1.07;;;7.00;1.00;;;;;;5097718;28;20271;-42
2023/04/13 04:49:41;;;;;;;1.40;0.90;;;7.10;1.00;;;;;;5097893;28;20458;-41
2023/04/13 04:52:11;;;;;;;1.73;0.80;;;7.10;1.00;;;;;;5097087;28;20473;-41
2023/04/13 04:54:40;;;;;;;4.03;1.67;;;7.10;1.00;;;;;;5096376;28;20505;-41
2023/04/13 04:57:09;;;;;;;1.60;1.10;;;7.10;99.90;;;;;;5096675;28;20431;-41
2023/04/13 04:59:35;;;;;;;2.47;1.10;;;7.20;99.90;;;;;;5096073;28;20430;-43
2023/04/13 05:02:01;;;;;;;2.53;1.30;;;7.20;99.90;;;;;;5098028;28;20484;-41
2023/04/13 05:04:26;;;;;;;1.73;0.90;;;7.20;99.90;;;;;;5094773;28;20415;-41
2023/04/13 05:06:52;;;;;;;3.13;1.10;;;7.20;12.40;;;;;;5094170;28;20552;-42
2023/04/13 05:09:19;;;;;;;1.53;1.17;;;7.20;1.00;;;;;;5095140;28;20168;-42
2023/04/13 05:11:45;;;;;;;1.80;1.20;;;7.20;1.00;;;;;;5095331;28;20391;-43
2023/04/13 05:14:11;;;;;;;4.23;1.40;;;7.30;1.00;;;;;;5094035;28;20410;-41
2023/04/13 05:16:37;;;;;;;2.03;0.80;;;7.30;1.00;;;;;;5093343;28;20169;-41
2023/04/13 05:19:04;;;;;;;3.00;1.30;;;7.30;1.00;;;;;;5094597;28;20662;-40
2023/04/13 05:21:29;;;;;;;3.70;1.10;;;7.30;1.00;;;;;;5095041;28;20585;-41
2023/04/13 05:23:55;;;;;;;2.40;1.10;;;7.30;99.90;;;;;;5094172;28;20441;-42
2023/04/13 05:26:21;;;;;;;2.10;1.13;;;7.40;99.90;;;;;;5093842;28;20173;-41
2023/04/13 05:28:47;;;;;;;1.60;1.10;;;7.40;99.90;;;;;;5095722;28;20168;-40
2023/04/13 05:31:13;;;;;;;4.30;1.20;;;7.40;99.90;;;;;;5095893;28;20775;-41
2023/04/13 05:33:38;;;;;;;3.37;1.07;;;7.50;99.90;;;;;;5096781;28;20172;-41
2023/04/13 05:36:04;;;;;;;1.87;0.90;;;7.40;99.90;;;;;;5097479;28;20669;-43
2023/04/13 05:38:30;;;;;;;3.57;1.50;;;7.50;99.90;;;;;;5094490;28;20172;-41
2023/04/13 05:40:57;;;;;;;1.43;0.90;;;7.50;97.60;;;;;;5096168;28;20468;-41
2023/04/13 05:43:23;;;;;;;2.20;0.80;;;7.60;27.70;;;;;;5094994;28;20411;-41
2023/04/13 05:45:48;;;;;;;4.30;1.47;;;7.60;1.00;;;;;;5095438;28;20410;-41
2023/04/13 05:48:14;;;;;;;2.87;1.27;;;7.60;1.00;;;;;;5095242;28;20210;-41
2023/04/13 05:50:40;;;;;;;1.80;1.00;;;7.70;1.00;;;;;;5093948;28;20242;-42
2023/04/13 05:53:06;;;;;;;3.13;1.07;;;7.70;1.00;;;;;;5095113;28;20479;-41
2023/04/13 05:55:32;;;;;;;4.63;1.40;;;7.80;1.00;;;;;;5096310;28;20439;-41
2023/04/13 05:57:59;;;;;;;5.50;1.27;;;7.80;1.00;;;;;;5095670;28;20433;-41
2023/04/13 06:00:26;;;;;;;5.77;1.30;;;7.90;1.00;;;;;;5094893;28;20462;-40
2023/04/13 06:02:52;;;;;;;2.03;0.73;;;8.00;1.00;;;;;;5094277;28;20427;-41
2023/04/13 06:05:18;;;;;;;8.43;1.40;;;8.00;1.00;;;;;;5093914;28;20814;-41
2023/04/13 06:07:49;;;;;;;5.27;1.67;;;8.10;1.00;;;;;;5094469;28;20266;-41
2023/04/13 06:10:15;;;;;;;1.57;0.97;;;8.20;99.90;;;;;;5095693;28;20438;-41
2023/04/13 06:12:41;;;;;;;2.60;1.30;;;8.40;99.90;;;;;;5094834;28;20426;-40
2023/04/13 06:15:08;;;;;;;3.60;0.80;;;8.50;99.90;;;;;;5096141;28;20460;-42
2023/04/13 06:17:35;;;;;;;2.20;0.80;;;8.60;99.90;;;;;;5095624;28;20877;-43
2023/04/13 06:20:00;;;;;;;2.27;1.00;;;8.80;99.90;;;;;;5094777;28;20478;-45
2023/04/13 06:22:26;;;;;;;1.83;1.13;;;8.90;99.90;;;;;;5094557;28;20583;-42
2023/04/13 06:24:52;;;;;;;2.13;0.83;;;9.00;71.40;;;;;;5095129;28;20413;-42
2023/04/13 06:27:18;;;;;;;2.70;1.10;;;9.10;31.10;;;;;;5092928;28;20244;-41
2023/04/13 06:29:44;;;;;;;4.83;1.03;;;9.20;16.40;;;;;;5092302;28;20530;-41
2023/04/13 06:32:10;;;;;;;3.30;1.10;;;9.20;9.70;;;;;;5090750;28;20212;-43
2023/04/13 06:34:36;;;;;;;5.03;1.70;;;9.30;5.10;;;;;;5092539;28;20735;-41
2023/04/13 06:37:02;;;;;;;4.90;1.20;;;9.40;1.00;;;;;;5092905;28;20450;-42
2023/04/13 06:39:28;;;;;;;2.40;1.00;;;9.60;1.00;;;;;;5093792;28;20503;-41
2023/04/13 06:41:55;;;;;;;1.90;1.00;;;9.80;1.00;;;;;;5094274;28;20501;-41
2023/04/13 06:44:20;;;;;;;4.63;1.20;;;10.00;1.00;;;;;;5093127;28;20165;-42
2023/04/13 06:46:46;;;;;;;2.00;0.93;;;10.20;1.00;;;;;;5091062;28;20448;-43
2023/04/13 06:49:12;;;;;;;2.70;1.00;;;10.30;1.00;;;;;;5093514;28;20170;-40
2023/04/13 06:51:38;;;;;;;3.03;1.23;;;10.40;1.00;;;;;;5093293;28;20204;-43
2023/04/13 06:54:04;;;;;;;1.67;0.80;;;10.60;1.00;;;;;;5094534;28;20661;-41
2023/04/13 06:56:30;;;;;;;2.77;1.10;;;10.70;1.00;;;;;;5095467;28;20426;-41
2023/04/13 06:58:59;;;;;;;4.17;1.03;;;10.80;1.00;;;;;;5095744;28;20502;-42
2023/04/13 07:01:28;;;;;;;3.53;1.03;;;10.80;1.00;;;;;;5095400;28;20543;-40
2023/04/13 07:03:54;;;;;;;4.53;1.33;;;10.90;1.00;;;;;;5094976;28;20777;-42
2023/04/13 07:06:21;;;;;;;1.80;1.10;;;10.90;1.00;;;;;;5093813;28;20433;-42
2023/04/13 07:08:46;;;;;;;3.90;1.10;;;10.90;1.00;;;;;;5092873;28;20236;-42
2023/04/13 07:11:13;;;;;;;2.17;1.27;;;10.90;1.00;;;;;;5094918;28;20827;-43
2023/04/13 07:13:39;;;;;;;1.73;0.80;;;10.90;1.00;;;;;;5093327;28;20210;-44
2023/04/13 07:16:07;;;;;;;1.87;1.03;;;10.80;1.00;;;;;;5094012;28;20430;-43
2023/04/13 07:18:33;;;;;;;5.60;1.33;;;10.80;1.00;;;;;;5095758;28;20205;-43
2023/04/13 07:20:59;;;;;;;4.23;1.23;;;10.80;1.00;;;;;;5092925;28;20635;-41
2023/04/13 07:23:25;;;;;;;2.73;1.20;;;10.80;1.00;;;;;;5094066;28;20592;-41
2023/04/13 07:25:50;;;;;;;4.33;1.20;;;10.90;1.00;;;;;;5090105;28;20256;-41
2023/04/13 07:28:16;;;;;;;2.13;1.00;;;11.00;1.00;;;;;;5089293;28;20188;-42
2023/04/13 07:30:45;;;;;;;1.70;0.90;;;11.10;1.00;;;;;;5089706;28;20302;-45
2023/04/13 07:33:11;;;;;;;1.90;0.73;;;11.20;99.90;;;;;;5090375;28;20183;-44
2023/04/13 07:35:37;;;;;;;4.80;1.50;;;11.90;99.90;;;;;;5092749;28;20410;-42
2023/04/13 07:38:03;;;;;;;4.80;1.30;;;12.30;9.60;;;;;;5092865;28;20533;-43
2023/04/13 07:40:29;;;;;;;1.90;1.20;;;12.30;99.90;;;;;;5091432;28;20462;-44
2023/04/13 07:42:55;;;;;;;5.40;1.70;;;12.20;1.00;;;;;;5093645;28;20425;-42
2023/04/13 07:45:21;;;;;;;2.77;1.10;;;12.10;1.00;;;;;;5092414;28;20669;-43
2023/04/13 07:47:47;;;;;;;2.00;1.20;;;12.00;1.00;;;;;;5091749;28;20549;-41
2023/04/13 07:50:13;;;;;;;3.70;1.57;;;12.00;1.00;;;;;;5091567;28;20165;-42
2023/04/13 07:52:39;;;;;;;4.60;1.60;;;12.00;1.00;;;;;;5093640;28;20468;-42
2023/04/13 07:55:05;;;;;;;9.00;2.53;;;12.00;1.00;;;;;;5094778;28;20450;-41
2023/04/13 07:57:31;;;;;;;5.77;1.70;;;12.00;1.00;;;;;;5094473;28;20176;-43
2023/04/13 07:59:57;;;;;;;2.40;1.27;;;12.20;1.00;;;;;;5075445;28;20432;-42
2023/04/13 08:02:24;;;;;;;3.67;1.80;;;12.20;1.00;;;;;;5093916;28;20261;-42
2023/04/13 08:04:51;;;;;;;1.70;0.93;;;12.30;1.00;;;;;;5092874;28;20489;-41
2023/04/13 08:07:18;;;;;;;5.37;1.07;;;12.20;1.00;;;;;;5094702;28;20422;-43
2023/04/13 08:09:48;;;;;;;3.33;1.20;;;12.30;1.00;;;;;;5094717;28;20414;-43
2023/04/13 08:12:15;;;;;;;2.97;1.50;;;12.40;1.00;;;;;;5094116;28;20199;-43
2023/04/13 08:14:41;;;;;;;2.17;1.27;;;12.60;1.00;;;;;;5094753;28;20843;-42
2023/04/13 08:17:06;;;;;;;4.83;1.40;;;12.70;1.00;;;;;;5093406;28;20669;-42
2023/04/13 08:19:32;;;;;;;5.77;1.87;;;12.70;1.00;;;;;;5094366;28;20427;-42
2023/04/13 08:21:58;;;;;;;2.87;1.60;;;12.80;1.00;;;;;;5095021;28;20204;-41
2023/04/13 08:24:24;;;;;;;4.50;1.43;;;12.90;1.00;;;;;;5095307;28;20931;-43
2023/04/13 08:26:53;;;;;;;2.63;1.47;;;13.00;1.00;;;;;;5095619;28;20419;-46
2023/04/13 08:29:21;;;;;;;4.07;1.60;;;13.00;1.00;;;;;;5095376;28;20797;-41
2023/04/13 08:31:46;;;;;;;3.27;1.10;;;13.10;1.00;;;;;;5094139;28;20422;-43
2023/04/13 08:34:13;;;;;;;3.73;1.53;;;13.20;1.00;;;;;;5094046;28;20427;-43
2023/04/13 08:36:39;;;;;;;3.67;1.53;;;13.10;1.00;;;;;;5096025;28;20596;-42
2023/04/13 08:39:08;;;;;;;5.97;1.60;;;13.20;1.00;;;;;;5096796;28;20422;-42
2023/04/13 08:41:36;;;;;;;3.37;1.40;;;13.20;1.00;;;;;;5094551;28;20971;-42
2023/04/13 08:44:05;;;;;;;4.20;1.50;;;13.20;1.00;;;;;;5094309;28;20437;-41
2023/04/13 08:46:32;;;;;;;3.27;1.33;;;13.30;1.00;;;;;;5096604;28;20674;-42
2023/04/13 08:48:59;;;;;;;5.37;2.07;;;13.30;1.00;;;;;;5094684;28;20411;-42
2023/04/13 08:51:28;;;;;;;6.13;1.67;;;13.30;1.00;;;;;;5096174;28;20939;-41
2023/04/13 08:53:54;;;;;;;5.33;1.70;;;13.30;1.00;;;;;;5096843;28;20912;-42
2023/04/13 08:56:21;;;;;;;3.80;1.30;;;13.20;1.00;;;;;;5098266;28;20434;-43
2023/04/13 08:58:48;;;;;;;4.03;1.50;;;13.00;1.00;;;;;;5095644;28;20469;-44
2023/04/13 09:01:15;;;;;;;3.50;1.33;;;12.80;1.00;;;;;;5093063;28;20470;-41
2023/04/13 09:03:53;;;;;;;2.93;1.23;;;12.70;1.00;;;;;;5096703;28;20407;-41
2023/04/13 09:06:31;;;;;;;4.10;1.10;;;12.60;1.00;;;;;;5093545;28;20445;-41
2023/04/13 09:08:57;;;;;;;4.73;1.87;;;12.50;1.00;;;;;;5094646;28;20410;-43
2023/04/13 09:11:24;;;;;;;2.97;1.80;;;12.40;1.00;;;;;;5093661;28;20457;-42
2023/04/13 09:13:50;;;;;;;3.10;1.67;;;12.40;1.00;;;;;;5095448;28;20419;-42
2023/04/13 09:16:17;;;;;;;6.53;1.70;;;12.40;1.00;;;;;;5095758;28;20843;-44
2023/04/13 09:18:57;;;;;;;4.27;1.50;;;12.50;1.00;;;;;;5096076;28;20594;-42
2023/04/13 09:21:34;;;;;;;4.10;1.27;;;12.60;1.00;;;;;;5093465;28;20458;-40
2023/04/13 09:24:00;;;;;;;7.40;1.73;;;12.90;1.00;;;;;;5091377;28;20437;-45
2023/04/13 09:26:26;;;;;;;4.27;1.20;;;13.50;1.00;;;;;;5095664;28;20422;-53
2023/04/13 09:28:55;;;;;;;4.07;2.30;;;14.10;1.00;;;;;;5095366;28;20403;-44
2023/04/13 09:31:21;;;;;;;4.63;1.47;;;14.20;1.00;;;;;;5094640;28;20195;-43
2023/04/13 09:33:48;;;;;;;3.40;1.33;;;13.90;1.00;;;;;;5094794;28;20808;-44
2023/04/13 09:36:19;;;;;;;3.77;1.83;;;13.50;1.00;;;;;;5093984;28;20422;-45
2023/04/13 09:38:55;;;;;;;5.93;1.70;;;13.00;1.00;;;;;;5096190;28;20475;-44
2023/04/13 09:41:31;;;;;;;4.40;1.53;;;12.50;1.00;;;;;;5091895;28;20473;-46
2023/04/13 09:44:01;;;;;;;5.67;1.93;;;12.20;1.00;;;;;;5092686;28;20409;-46
2023/04/13 09:46:27;;;;;;;4.07;1.23;;;11.90;1.00;;;;;;5094909;28;20499;-44
2023/04/13 09:49:03;;;;;;;4.27;1.80;;;11.50;1.00;;;;;;5094258;28;20753;-44
2023/04/13 09:51:40;;;;;;;4.73;1.80;;;10.80;1.00;;;;;;5093287;28;20716;-46
2023/04/13 09:54:06;;;;;;;7.57;1.60;;;9.80;1.00;;;;;;5091337;28;20445;-45
2023/04/13 09:56:43;;;;;;;3.87;1.47;;;9.70;1.00;;;;;;5094349;28;20720;-46
2023/04/13 09:59:09;;;;;;;7.83;1.97;;;9.80;1.00;;;;;;5093457;28;20421;-45
2023/04/13 10:01:36;;;;;;;2.73;1.27;;;9.90;1.00;;;;;;5092473;28;20753;-45
2023/04/13 10:04:05;;;;;;;5.20;1.73;;;9.90;1.00;;;;;;5092159;28;20433;-43
2023/04/13 10:06:37;;;;;;;4.67;1.47;;;10.20;1.00;;;;;;5092330;28;20430;-44
2023/04/13 10:09:03;;;;;;;2.90;1.50;;;10.20;1.00;;;;;;5091641;28;20419;-45
2023/04/13 10:11:29;;;;;;;3.27;1.40;;;9.90;1.00;;;;;;5088511;28;20666;-46
2023/04/13 10:13:58;;;;;;;3.67;1.60;;;9.90;1.00;;;;;;5089156;28;20175;-44
2023/04/13 10:16:43;;;;;;;4.53;2.13;;;9.60;1.00;;;;;;5092316;28;20828;-45
2023/04/13 10:19:13;;;;;;;5.80;1.63;;;9.50;1.00;;;;;;5094441;28;20440;-43
2023/04/13 10:21:45;;;;;;;4.43;1.53;;;9.40;1.00;;;;;;5095180;28;20606;-43
2023/04/13 10:24:13;;;;;;;7.20;1.57;;;9.30;1.00;;;;;;5092418;28;20540;-45
2023/04/13 10:26:40;;;;;;;4.03;1.60;;;9.10;1.00;;;;;;5095924;28;20434;-45
2023/04/13 10:29:07;;;;;;;5.40;1.70;;;9.20;1.00;;;;;;5089492;28;20860;-47
2023/04/13 10:31:47;;;;;;;4.83;2.00;;;9.30;1.00;;;;;;5091444;28;20685;-47
2023/04/13 10:34:24;;;;;;;5.03;1.43;;;9.60;1.00;;;;;;5089695;28;20414;-44
2023/04/13 10:36:55;;;;;;;3.63;1.70;;;9.90;1.00;;;;;;5090913;28;20458;-44
2023/04/13 10:39:27;;;;;;;7.20;2.60;;;10.30;1.00;;;;;;5093003;28;20457;-46
2023/04/13 10:42:00;;;;;;;4.03;1.60;;;10.60;1.00;;;;;;5093104;28;20566;-45
2023/04/13 10:44:27;;;;;;;6.60;1.93;;;10.80;1.00;;;;;;5092383;28;20448;-46
2023/04/13 10:46:52;;;;;;;4.27;1.97;;;11.20;1.00;;;;;;5093234;28;20426;-46
2023/04/13 10:49:29;;;;;;;4.67;1.77;;;11.80;1.00;;;;;;5090373;28;20563;-45
2023/04/13 10:51:55;;;;;;;5.30;2.00;;;12.00;1.00;;;;;;5090418;28;20176;-45
2023/04/13 10:54:21;;;;;;;4.83;1.93;;;11.90;1.00;;;;;;5091792;28;20840;-46
2023/04/13 10:56:57;;;;;;;4.27;1.57;;;11.80;1.00;;;;;;5092390;28;20195;-46
2023/04/13 10:59:35;;;;;;;4.20;1.60;;;12.00;1.00;;;;;;5093115;28;21524;-45
2023/04/13 11:02:03;;;;;;;5.10;2.00;;;11.30;1.00;;;;;;5092284;28;20468;-45
2023/04/13 11:04:30;;;;;;;4.60;2.00;;;11.20;1.00;;;;;;5090744;28;20419;-48
2023/04/13 11:06:56;;;;;;;6.17;2.03;;;10.90;1.00;;;;;;5091861;28;20495;-45
2023/04/13 11:09:22;;;;;;;8.77;2.13;;;10.60;1.00;;;;;;5092780;28;20419;-46
2023/04/13 11:11:51;;;;;;;5.90;1.90;;;10.50;1.00;;;;;;5093800;28;20185;-45
2023/04/13 11:14:21;;;;;;;6.70;2.03;;;10.20;1.00;;;;;;5091638;28;20176;-44
2023/04/13 11:16:48;;;;;;;6.63;2.40;;;10.20;1.00;;;;;;5091015;28;20434;-45
2023/04/13 11:19:14;;;;;;;7.07;2.40;;;10.40;1.00;;;;;;5093515;28;20469;-45
2023/04/13 11:21:39;;;;;;;5.60;1.67;;;10.40;1.00;;;;;;5093110;28;20887;-47
2023/04/13 11:24:05;;;;;;;6.67;1.47;;;10.70;1.00;;;;;;5091159;28;20460;-46
2023/04/13 11:26:32;;;;;;;2.53;1.50;;;10.80;1.00;;;;;;5092953;28;20238;-45
2023/04/13 11:28:59;;;;;;;5.03;2.07;;;10.50;1.00;;;;;;5092855;28;20869;-44
2023/04/13 11:31:40;;;;;;;6.87;1.93;;;10.20;1.00;;;;;;5092817;28;20820;-46
2023/04/13 11:34:10;;;;;;;3.00;1.27;;;9.60;1.00;;;;;;5091223;28;20703;-45
2023/04/13 11:36:38;;;;;;;3.63;1.87;;;9.10;99.10;;;;;;5096188;28;20695;-45
2023/04/13 11:39:07;;;;;;;6.73;1.97;;;8.80;60.60;;;;;;5096030;28;20531;-46
2023/04/13 11:41:38;;;;;;;2.90;1.30;;;8.90;1.00;;;;;;5096881;28;20470;-43
2023/04/13 11:44:04;;;;;;;5.73;1.97;;;8.90;99.90;;;;;;5098628;28;20429;-44
2023/04/13 11:46:29;;;;;;;4.30;1.70;;;9.00;1.00;;;;;;5096497;28;20402;-45
2023/04/13 11:48:56;;;;;;;4.43;1.70;;;9.40;99.90;;;;;;5097393;28;20309;-44
2023/04/13 11:51:21;;;;;;;7.23;2.10;;;10.10;1.00;;;;;;5096639;28;20596;-44
2023/04/13 11:53:50;;;;;;;4.80;1.80;;;10.90;1.00;;;;;;5095733;28;20426;-46
2023/04/13 11:56:15;;;;;;;5.33;1.90;;;11.90;88.90;;;;;;5097049;28;20426;-44
2023/04/13 11:58:41;;;;;;;3.83;1.63;;;12.30;1.00;;;;;;5093951;28;20510;-48
2023/04/13 12:01:08;;;;;;;4.90;1.40;;;13.10;1.00;;;;;;5092798;28;20640;-45
2023/04/13 12:03:34;;;;;;;3.00;1.33;;;13.20;1.00;;;;;;5096391;28;20185;-44
2023/04/13 12:06:00;;;;;;;4.33;1.10;;;13.00;1.00;;;;;;5095891;28;20442;-46
2023/04/13 12:08:28;;;;;;;3.00;1.10;;;12.80;1.00;;;;;;5095159;28;20414;-45
2023/04/13 12:10:59;;;;;;;4.00;1.30;;;12.50;1.00;;;;;;5094907;28;20418;-43
2023/04/13 12:13:25;;;;;;;2.70;1.20;;;12.30;1.00;;;;;;5091997;28;20438;-46
2023/04/13 12:15:51;;;;;;;2.70;0.97;;;12.10;1.00;;;;;;5093431;28;20956;-44
2023/04/13 12:18:18;;;;;;;3.50;1.30;;;12.30;1.00;;;;;;5094871;28;20509;-44
2023/04/13 12:20:45;;;;;;;4.27;2.27;;;12.10;1.00;;;;;;5096061;28;20255;-45
2023/04/13 12:23:20;;;;;;;4.00;1.20;;;12.30;1.00;;;;;;5095759;28;20731;-43
2023/04/13 12:25:58;;;;;;;3.87;1.70;;;12.40;1.00;;;;;;5096040;28;20785;-44
2023/04/13 12:28:35;;;;;;;3.03;1.13;;;12.80;1.00;;;;;;5095717;28;20407;-45
2023/04/13 12:31:08;;;;;;;2.50;0.90;;;12.80;1.00;;;;;;5092017;28;20579;-46
2023/04/13 12:33:35;;;;;;;3.20;0.93;;;12.70;1.00;;;;;;5094042;28;20482;-45
2023/04/13 12:36:01;;;;;;;1.83;0.87;;;12.90;1.00;;;;;;5093028;28;20427;-45
2023/04/13 12:38:26;;;;;;;2.50;0.70;;;12.70;1.00;;;;;;5095886;28;20715;-47
2023/04/13 12:40:56;;;;;;;1.90;0.87;;;13.00;1.00;;;;;;5094286;28;20462;-46
2023/04/13 12:43:22;;;;;;;2.53;0.70;;;13.10;1.00;;;;;;5093160;28;20607;-46
2023/04/13 12:45:48;;;;;;;2.20;1.00;;;12.30;1.00;;;;;;5093479;28;20414;-46
2023/04/13 12:48:14;;;;;;;2.10;0.60;;;12.50;1.00;;;;;;5094396;28;20648;-45
2023/04/13 12:50:39;;;;;;;1.53;0.70;;;12.70;1.00;;;;;;5094695;28;20188;-47
2023/04/13 12:53:05;;;;;;;1.00;0.50;;;12.30;1.00;;;;;;5092643;28;20177;-45
2023/04/13 12:55:31;;;;;;;2.27;0.70;;;12.00;1.00;;;;;;5094857;28;20640;-45
2023/04/13 12:57:57;;;;;;;1.63;1.03;;;11.80;1.00;;;;;;5094812;28;20272;-46
2023/04/13 13:00:23;;;;;;;3.90;1.10;;;11.50;1.00;;;;;;5093460;28;20185;-43
2023/04/13 13:02:50;;;;;;;4.27;1.20;;;11.30;1.00;;;;;;5092920;28;20492;-44